createdAt,value
2019-05-06T00:01:26.112Z,1014.70
2019-05-06T00:02:26.121Z,1014.63
2019-05-06T00:04:19.028Z,1014.66
2019-05-06T00:05:19.032Z,1014.61
2019-05-06T00:07:13.703Z,1014.61
2019-05-06T00:08:11.939Z,1014.62
2019-05-06T00:10:05.761Z,1014.62
2019-05-06T00:11:04.978Z,1014.66
2019-05-06T00:12:57.756Z,1014.69
2019-05-06T00:13:57.756Z,1014.69
2019-05-06T00:15:50.654Z,1014.67
2019-05-06T00:16:50.664Z,1014.67
2019-05-06T00:18:44.934Z,1014.70
2019-05-06T00:19:44.748Z,1014.69
2019-05-06T00:21:36.471Z,1014.70
2019-05-06T00:22:36.478Z,1014.70
2019-05-06T00:24:29.386Z,1014.71
2019-05-06T00:25:29.387Z,1014.70
2019-05-06T00:27:24.617Z,1014.70
2019-05-06T00:28:24.285Z,1014.66
2019-05-06T00:30:15.202Z,1014.67
2019-05-06T00:31:16.552Z,1014.63
2019-05-06T00:33:08.116Z,1014.63
2019-05-06T00:34:08.110Z,1014.64
2019-05-06T00:36:01.013Z,1014.60
2019-05-06T00:37:01.017Z,1014.63
2019-05-06T00:38:54.042Z,1014.65
2019-05-06T00:39:53.990Z,1014.65
2019-05-06T00:41:46.826Z,1014.63
2019-05-06T00:42:46.829Z,1014.62
2019-05-06T00:44:39.733Z,1014.56
2019-05-06T00:45:39.738Z,1014.60
2019-05-06T00:47:34.047Z,1014.60
2019-05-06T00:48:34.203Z,1014.60
2019-05-06T00:50:25.547Z,1014.62
2019-05-06T00:51:25.550Z,1014.65
2019-05-06T00:53:18.456Z,1014.61
2019-05-06T00:54:18.456Z,1014.60
2019-05-06T00:56:11.356Z,1014.62
2019-05-06T00:57:11.362Z,1014.60
2019-05-06T00:59:04.268Z,1014.60
2019-05-06T01:00:04.275Z,1014.65
2019-05-06T01:01:57.173Z,1014.74
2019-05-06T01:02:57.175Z,1014.70
2019-05-06T01:04:50.079Z,1014.71
2019-05-06T01:05:50.082Z,1014.71
2019-05-06T01:07:44.106Z,1014.72
2019-05-06T01:08:44.075Z,1014.70
2019-05-06T01:10:35.895Z,1014.67
2019-05-06T01:11:35.896Z,1014.70
2019-05-06T01:13:28.801Z,1014.68
2019-05-06T01:14:28.802Z,1014.70
2019-05-06T01:16:21.703Z,1014.71
2019-05-06T01:17:21.710Z,1014.66
2019-05-06T01:19:14.614Z,1014.64
2019-05-06T01:20:14.616Z,1014.65
2019-05-06T01:22:07.515Z,1014.69
2019-05-06T01:23:07.522Z,1014.67
2019-05-06T01:25:00.438Z,1014.66
2019-05-06T01:26:00.428Z,1014.65
2019-05-06T01:27:54.056Z,1014.61
2019-05-06T01:28:54.540Z,1014.60
2019-05-06T01:30:46.249Z,1014.59
2019-05-06T01:31:46.358Z,1014.55
2019-05-06T01:33:39.147Z,1014.55
2019-05-06T01:34:39.152Z,1014.57
2019-05-06T01:36:34.115Z,1014.57
2019-05-06T01:37:32.052Z,1014.56
2019-05-06T01:39:24.958Z,1014.59
2019-05-06T01:40:24.959Z,1014.58
2019-05-06T01:42:17.857Z,1014.57
2019-05-06T01:43:17.865Z,1014.58
2019-05-06T01:45:10.769Z,1014.54
2019-05-06T01:46:10.769Z,1014.56
2019-05-06T01:48:04.060Z,1014.57
2019-05-06T01:49:04.278Z,1014.61
2019-05-06T01:50:56.582Z,1014.59
2019-05-06T01:51:56.588Z,1014.63
2019-05-06T01:53:49.499Z,1014.63
2019-05-06T01:54:49.490Z,1014.63
2019-05-06T01:56:44.232Z,1014.58
2019-05-06T01:57:44.351Z,1014.59
2019-05-06T01:59:35.303Z,1014.62
2019-05-06T02:00:35.303Z,1014.59
2019-05-06T02:02:28.202Z,1014.61
2019-05-06T02:03:28.208Z,1014.64
2019-05-06T02:05:21.113Z,1014.62
2019-05-06T02:06:21.117Z,1014.64
2019-05-06T02:08:14.016Z,1014.60
2019-05-06T02:09:14.027Z,1014.60
2019-05-06T02:11:06.933Z,1014.62
2019-05-06T02:12:06.937Z,1014.61
2019-05-06T02:13:59.844Z,1014.63
2019-05-06T02:14:59.847Z,1014.64
2019-05-06T02:16:54.587Z,1014.67
2019-05-06T02:17:54.997Z,1014.65
2019-05-06T02:19:45.656Z,1014.66
2019-05-06T02:20:45.658Z,1014.66
2019-05-06T02:22:38.570Z,1014.66
2019-05-06T02:23:38.567Z,1014.68
2019-05-06T02:25:31.474Z,1014.67
2019-05-06T02:26:31.476Z,1014.66
2019-05-06T02:28:24.377Z,1014.67
2019-05-06T02:29:24.719Z,1014.66
2019-05-06T02:31:17.289Z,1014.63
2019-05-06T02:32:25.984Z,1014.66
2019-05-06T02:34:10.223Z,1014.66
2019-05-06T02:35:10.198Z,1014.66
2019-05-06T02:37:05.987Z,1014.64
2019-05-06T02:38:04.911Z,1014.64
2019-05-06T02:39:56.017Z,1014.63
2019-05-06T02:40:56.019Z,1014.64
2019-05-06T02:42:48.911Z,1014.67
2019-05-06T02:43:48.918Z,1014.68
2019-05-06T02:45:43.354Z,1014.68
2019-05-06T02:46:44.131Z,1014.72
2019-05-06T02:48:34.727Z,1014.68
2019-05-06T02:49:34.746Z,1014.64
2019-05-06T02:51:27.642Z,1014.64
2019-05-06T02:52:27.641Z,1014.64
2019-05-06T02:54:23.446Z,1014.68
2019-05-06T02:55:23.382Z,1014.67
2019-05-06T02:57:13.455Z,1014.64
2019-05-06T02:58:14.878Z,1014.66
2019-05-06T03:00:06.367Z,1014.65
2019-05-06T03:01:06.373Z,1014.63
2019-05-06T03:02:59.265Z,1014.61
2019-05-06T03:03:59.271Z,1014.60
2019-05-06T03:05:53.210Z,1014.62
2019-05-06T03:06:53.305Z,1014.65
2019-05-06T03:08:45.081Z,1014.63
2019-05-06T03:09:45.087Z,1014.67
2019-05-06T03:11:38.000Z,1014.64
2019-05-06T03:12:38.001Z,1014.64
2019-05-06T03:14:34.264Z,1014.61
2019-05-06T03:15:33.546Z,1014.60
2019-05-06T03:17:23.822Z,1014.60
2019-05-06T03:18:23.923Z,1014.62
2019-05-06T03:20:16.720Z,1014.57
2019-05-06T03:21:16.721Z,1014.58
2019-05-06T03:23:09.619Z,1014.54
2019-05-06T03:24:09.627Z,1014.53
2019-05-06T03:26:05.805Z,1014.53
2019-05-06T03:27:04.708Z,1014.55
2019-05-06T03:28:55.439Z,1014.57
2019-05-06T03:29:55.447Z,1014.53
2019-05-06T03:31:48.351Z,1014.55
2019-05-06T03:33:28.131Z,1014.54
2019-05-06T03:35:05.653Z,1014.51
2019-05-06T03:35:55.953Z,1014.52
2019-05-06T03:37:34.201Z,1014.50
2019-05-06T03:38:34.171Z,1014.54
2019-05-06T03:40:27.079Z,1014.51
2019-05-06T03:41:27.075Z,1014.50
2019-05-06T03:43:23.062Z,1014.48
2019-05-06T03:44:19.985Z,1014.50
2019-05-06T03:46:14.337Z,1014.53
2019-05-06T03:47:13.864Z,1014.53
2019-05-06T03:49:05.818Z,1014.52
2019-05-06T03:50:05.842Z,1014.52
2019-05-06T03:51:58.730Z,1014.54
2019-05-06T03:52:58.733Z,1014.57
2019-05-06T03:54:53.605Z,1014.52
2019-05-06T03:55:53.952Z,1014.50
2019-05-06T03:57:44.541Z,1014.52
2019-05-06T03:58:44.544Z,1014.52
2019-05-06T04:00:37.448Z,1014.54
2019-05-06T04:01:37.450Z,1014.52
2019-05-06T04:03:43.865Z,1014.59
2019-05-06T04:04:33.124Z,1014.57
2019-05-06T04:06:24.177Z,1014.60
2019-05-06T04:07:23.672Z,1014.58
2019-05-06T04:09:16.163Z,1014.56
2019-05-06T04:10:16.170Z,1014.55
2019-05-06T04:12:09.075Z,1014.55
2019-05-06T04:13:09.076Z,1014.54
2019-05-06T04:15:03.906Z,1014.50
2019-05-06T04:16:03.794Z,1014.52
2019-05-06T04:17:54.890Z,1014.50
2019-05-06T04:18:54.892Z,1014.53
2019-05-06T04:20:47.800Z,1014.52
2019-05-06T04:21:47.797Z,1014.46
2019-05-06T04:23:43.479Z,1014.49
2019-05-06T04:24:43.059Z,1014.50
2019-05-06T04:26:33.611Z,1014.46
2019-05-06T04:27:33.863Z,1014.50
2019-05-06T04:29:26.513Z,1014.48
2019-05-06T04:30:26.520Z,1014.52
2019-05-06T04:32:19.432Z,1014.51
2019-05-06T04:33:19.441Z,1014.56
2019-05-06T04:35:13.506Z,1014.55
2019-05-06T04:36:13.125Z,1014.57
2019-05-06T04:38:06.239Z,1014.57
2019-05-06T04:39:06.252Z,1014.56
2019-05-06T04:40:59.150Z,1014.52
2019-05-06T04:41:59.149Z,1014.52
2019-05-06T04:43:53.363Z,1014.51
2019-05-06T04:44:53.194Z,1014.53
2019-05-06T04:46:44.965Z,1014.55
2019-05-06T04:47:44.970Z,1014.53
2019-05-06T04:49:37.867Z,1014.55
2019-05-06T04:50:37.874Z,1014.58
2019-05-06T04:52:33.966Z,1014.60
2019-05-06T04:53:33.710Z,1014.60
2019-05-06T04:55:23.690Z,1014.65
2019-05-06T04:56:23.941Z,1014.61
2019-05-06T04:58:16.596Z,1014.63
2019-05-06T04:59:16.599Z,1014.59
2019-05-06T05:01:12.095Z,1014.63
2019-05-06T05:02:09.508Z,1014.61
2019-05-06T05:04:03.567Z,1014.64
2019-05-06T05:05:04.055Z,1014.65
2019-05-06T05:06:55.331Z,1014.67
2019-05-06T05:07:55.325Z,1014.61
2019-05-06T05:09:48.226Z,1014.62
2019-05-06T05:10:48.234Z,1014.63
2019-05-06T05:12:42.667Z,1014.63
2019-05-06T05:13:43.194Z,1014.61
2019-05-06T05:15:34.039Z,1014.63
2019-05-06T05:16:34.047Z,1014.63
2019-05-06T05:18:26.958Z,1014.64
2019-05-06T05:19:26.963Z,1014.65
2019-05-06T05:21:19.876Z,1014.70
2019-05-06T05:22:21.832Z,1014.69
2019-05-06T05:24:12.781Z,1014.72
2019-05-06T05:25:12.783Z,1014.70
2019-05-06T05:27:05.690Z,1014.75
2019-05-06T05:28:05.685Z,1014.74
2019-05-06T05:29:58.584Z,1014.72
2019-05-06T05:30:58.592Z,1014.72
2019-05-06T05:32:52.111Z,1014.73
2019-05-06T05:33:52.601Z,1014.70
2019-05-06T05:35:44.405Z,1014.73
2019-05-06T05:36:44.408Z,1014.69
2019-05-06T05:38:37.318Z,1014.68
2019-05-06T05:39:37.320Z,1014.73
2019-05-06T05:41:30.221Z,1014.69
2019-05-06T05:42:30.228Z,1014.67
2019-05-06T05:44:23.136Z,1014.62
2019-05-06T05:45:23.142Z,1014.70
2019-05-06T05:47:16.045Z,1014.69
2019-05-06T05:48:16.051Z,1014.67
2019-05-06T05:50:08.952Z,1014.70
2019-05-06T05:51:08.960Z,1014.68
2019-05-06T05:53:02.496Z,1014.73
2019-05-06T05:54:02.317Z,1014.74
2019-05-06T05:55:54.772Z,1014.81
2019-05-06T05:56:54.776Z,1014.83
2019-05-06T05:58:47.687Z,1014.85
2019-05-06T05:59:47.689Z,1014.86
2019-05-06T06:01:40.590Z,1014.88
2019-05-06T06:02:43.729Z,1014.87
2019-05-06T06:04:33.509Z,1014.84
2019-05-06T06:05:33.507Z,1014.85
2019-05-06T06:07:27.425Z,1014.85
2019-05-06T06:08:27.413Z,1014.78
2019-05-06T06:10:22.467Z,1014.79
2019-05-06T06:11:20.320Z,1014.74
2019-05-06T06:13:13.226Z,1014.74
2019-05-06T06:14:13.228Z,1014.72
2019-05-06T06:16:06.131Z,1014.74
2019-05-06T06:17:06.136Z,1014.73
2019-05-06T06:18:59.049Z,1014.74
2019-05-06T06:19:59.046Z,1014.75
2019-05-06T06:21:52.411Z,1014.76
2019-05-06T06:22:52.358Z,1014.74
2019-05-06T06:24:44.865Z,1014.79
2019-05-06T06:25:44.866Z,1014.76
2019-05-06T06:27:37.774Z,1014.75
2019-05-06T06:28:37.776Z,1014.77
2019-05-06T06:30:33.036Z,1014.79
2019-05-06T06:31:30.687Z,1014.80
2019-05-06T06:33:23.602Z,1014.86
2019-05-06T06:34:23.597Z,1014.90
2019-05-06T06:36:16.501Z,1014.96
2019-05-06T06:37:16.509Z,1014.99
2019-05-06T06:39:09.419Z,1014.97
2019-05-06T06:40:09.431Z,1014.99
2019-05-06T06:42:02.857Z,1014.98
2019-05-06T06:43:02.332Z,1015.00
2019-05-06T06:44:55.245Z,1015.00
2019-05-06T06:45:55.244Z,1015.00
2019-05-06T06:47:48.151Z,1014.95
2019-05-06T06:48:48.153Z,1014.98
2019-05-06T06:50:42.658Z,1014.92
2019-05-06T06:51:42.516Z,1014.99
2019-05-06T06:53:33.977Z,1014.97
2019-05-06T06:54:33.981Z,1014.94
2019-05-06T06:56:26.887Z,1014.91
2019-05-06T06:57:26.894Z,1014.91
2019-05-06T06:59:19.806Z,1014.90
2019-05-06T07:00:22.143Z,1014.94
2019-05-06T07:02:12.720Z,1014.91
2019-05-06T07:03:12.729Z,1014.92
2019-05-06T07:05:05.646Z,1014.91
2019-05-06T07:06:05.646Z,1014.95
2019-05-06T07:07:58.560Z,1014.91
2019-05-06T07:08:58.567Z,1014.91
2019-05-06T07:10:52.568Z,1014.92
2019-05-06T07:11:52.586Z,1014.89
2019-05-06T07:13:44.396Z,1014.93
2019-05-06T07:14:44.404Z,1014.96
2019-05-06T07:16:37.320Z,1014.95
2019-05-06T07:17:37.320Z,1015.00
2019-05-06T07:19:32.620Z,1014.94
2019-05-06T07:20:32.395Z,1014.90
2019-05-06T07:22:23.280Z,1014.89
2019-05-06T07:23:23.162Z,1014.91
2019-05-06T07:25:16.569Z,1014.88
2019-05-06T07:26:16.578Z,1014.84
2019-05-06T07:28:09.491Z,1014.89
2019-05-06T07:29:16.805Z,1014.94
2019-05-06T07:31:17.339Z,1014.92
2019-05-06T07:32:02.776Z,1014.91
2019-05-06T07:33:55.324Z,1014.87
2019-05-06T07:34:55.331Z,1014.91
2019-05-06T07:36:48.239Z,1014.90
2019-05-06T07:37:48.251Z,1014.92
2019-05-06T07:39:43.043Z,1014.92
2019-05-06T07:40:41.985Z,1014.96
2019-05-06T07:42:34.078Z,1014.95
2019-05-06T07:43:34.090Z,1014.93
2019-05-06T07:45:27.004Z,1014.93
2019-05-06T07:46:27.009Z,1014.92
2019-05-06T07:48:22.098Z,1014.88
2019-05-06T07:49:19.929Z,1014.90
2019-05-06T07:51:12.838Z,1014.88
2019-05-06T07:52:12.856Z,1014.89
2019-05-06T07:54:05.766Z,1014.83
2019-05-06T07:55:05.769Z,1014.87
2019-05-06T07:56:58.678Z,1014.87
2019-05-06T07:57:58.689Z,1014.90
2019-05-06T07:59:52.566Z,1014.90
2019-05-06T08:00:52.462Z,1014.89
2019-05-06T08:02:44.518Z,1014.91
2019-05-06T08:03:44.530Z,1014.91
2019-05-06T08:05:37.441Z,1014.89
2019-05-06T08:06:37.448Z,1014.89
2019-05-06T08:08:30.362Z,1014.87
2019-05-06T08:09:32.444Z,1014.90
2019-05-06T08:11:25.990Z,1014.86
2019-05-06T08:12:23.284Z,1014.89
2019-05-06T08:14:16.200Z,1014.88
2019-05-06T08:15:16.204Z,1014.90
2019-05-06T08:17:09.109Z,1014.87
2019-05-06T08:18:09.122Z,1014.87
2019-05-06T08:20:02.627Z,1014.90
2019-05-06T08:21:02.543Z,1014.88
2019-05-06T08:22:56.586Z,1014.87
2019-05-06T08:23:54.963Z,1014.83
2019-05-06T08:25:47.875Z,1014.85
2019-05-06T08:26:47.888Z,1014.83
2019-05-06T08:28:43.918Z,1014.87
2019-05-06T08:29:42.475Z,1014.84
2019-05-06T08:31:33.714Z,1014.80
2019-05-06T08:32:33.726Z,1014.78
2019-05-06T08:34:26.639Z,1014.77
2019-05-06T08:35:26.647Z,1014.72
2019-05-06T08:37:19.558Z,1014.70
2019-05-06T08:38:19.573Z,1014.68
2019-05-06T08:40:12.486Z,1014.66
2019-05-06T08:41:12.496Z,1014.67
2019-05-06T08:43:05.407Z,1014.68
2019-05-06T08:44:05.421Z,1014.70
2019-05-06T08:45:58.336Z,1014.68
2019-05-06T08:46:58.350Z,1014.69
2019-05-06T08:48:52.569Z,1014.74
2019-05-06T08:49:52.785Z,1014.73
2019-05-06T08:51:44.185Z,1014.73
2019-05-06T08:52:44.195Z,1014.74
2019-05-06T08:54:37.102Z,1014.70
2019-05-06T08:55:37.118Z,1014.69
2019-05-06T08:57:30.030Z,1014.68
2019-05-06T08:58:32.347Z,1014.66
2019-05-06T09:00:22.956Z,1014.68
2019-05-06T09:01:22.966Z,1014.68
2019-05-06T09:03:15.877Z,1014.64
2019-05-06T09:04:16.528Z,1014.60
2019-05-06T09:06:23.606Z,1014.57
2019-05-06T09:07:08.815Z,1014.60
2019-05-06T09:09:02.372Z,1014.58
2019-05-06T09:10:02.565Z,1014.61
2019-05-06T09:11:54.706Z,1014.55
2019-05-06T09:12:54.670Z,1014.56
2019-05-06T09:14:47.586Z,1014.56
2019-05-06T09:15:47.594Z,1014.53
2019-05-06T09:17:42.023Z,1014.49
2019-05-06T09:18:42.623Z,1014.46
2019-05-06T09:20:33.437Z,1014.48
2019-05-06T09:21:33.708Z,1014.44
2019-05-06T09:23:27.626Z,1014.46
2019-05-06T09:24:26.369Z,1014.47
2019-05-06T09:26:19.320Z,1014.42
2019-05-06T09:27:19.317Z,1014.49
2019-05-06T09:29:12.855Z,1014.48
2019-05-06T09:30:13.128Z,1014.50
2019-05-06T09:32:05.161Z,1014.45
2019-05-06T09:33:05.168Z,1014.47
2019-05-06T09:34:58.086Z,1014.48
2019-05-06T09:35:58.101Z,1014.48
2019-05-06T09:37:53.253Z,1014.45
2019-05-06T09:38:52.891Z,1014.47
2019-05-06T09:40:43.941Z,1014.42
2019-05-06T09:41:47.306Z,1014.39
2019-05-06T09:43:36.851Z,1014.48
2019-05-06T09:44:36.863Z,1014.39
2019-05-06T09:46:32.088Z,1014.42
2019-05-06T09:47:29.784Z,1014.41
2019-05-06T09:49:22.998Z,1014.39
2019-05-06T09:50:23.089Z,1014.42
2019-05-06T09:52:15.641Z,1014.43
2019-05-06T09:53:15.640Z,1014.37
2019-05-06T09:55:08.556Z,1014.34
2019-05-06T09:56:08.564Z,1014.33
2019-05-06T09:58:03.471Z,1014.30
2019-05-06T09:59:02.165Z,1014.28
2019-05-06T10:00:54.407Z,1014.29
2019-05-06T10:01:54.413Z,1014.32
2019-05-06T10:03:47.327Z,1014.30
2019-05-06T10:04:47.339Z,1014.28
2019-05-06T10:06:54.987Z,1014.26
2019-05-06T10:07:40.264Z,1014.25
2019-05-06T10:09:33.177Z,1014.31
2019-05-06T10:10:33.194Z,1014.23
2019-05-06T10:12:26.115Z,1014.31
2019-05-06T10:13:26.118Z,1014.26
2019-05-06T10:15:19.039Z,1014.20
2019-05-06T10:16:19.048Z,1014.28
2019-05-06T10:18:13.148Z,1014.29
2019-05-06T10:19:13.181Z,1014.27
2019-05-06T10:21:04.892Z,1014.23
2019-05-06T10:22:04.900Z,1014.29
2019-05-06T10:23:57.813Z,1014.20
2019-05-06T10:24:57.828Z,1014.19
2019-05-06T10:26:52.339Z,1014.17
2019-05-06T10:27:52.504Z,1014.14
2019-05-06T10:29:43.668Z,1014.15
2019-05-06T10:30:43.682Z,1014.13
2019-05-06T10:32:36.600Z,1014.14
2019-05-06T10:33:36.608Z,1014.16
2019-05-06T10:35:29.883Z,1014.15
2019-05-06T10:36:29.534Z,1014.15
2019-05-06T10:38:22.891Z,1014.13
2019-05-06T10:39:22.914Z,1014.11
2019-05-06T10:41:15.383Z,1014.09
2019-05-06T10:42:15.390Z,1014.11
2019-05-06T10:44:08.306Z,1014.16
2019-05-06T10:45:08.321Z,1014.14
2019-05-06T10:47:02.935Z,1014.14
2019-05-06T10:48:02.376Z,1014.09
2019-05-06T10:49:54.174Z,1014.10
2019-05-06T10:50:54.182Z,1014.02
2019-05-06T10:52:47.097Z,1013.95
2019-05-06T10:53:47.106Z,1013.99
2019-05-06T10:55:40.024Z,1014.00
2019-05-06T10:56:52.336Z,1013.96
2019-05-06T10:58:32.947Z,1013.99
2019-05-06T10:59:32.961Z,1014.02
2019-05-06T11:01:25.880Z,1013.92
2019-05-06T11:02:25.888Z,1013.94
2019-05-06T11:04:18.812Z,1013.92
2019-05-06T11:05:18.813Z,1013.91
2019-05-06T11:07:13.746Z,1013.94
2019-05-06T11:08:11.739Z,1013.90
2019-05-06T11:10:04.667Z,1013.97
2019-05-06T11:11:14.791Z,1013.95
2019-05-06T11:12:57.634Z,1013.91
2019-05-06T11:13:57.591Z,1013.91
2019-05-06T11:15:52.738Z,1013.87
2019-05-06T11:16:50.515Z,1013.87
2019-05-06T11:18:43.439Z,1013.85
2019-05-06T11:19:43.466Z,1013.84
2019-05-06T11:21:36.373Z,1013.80
2019-05-06T11:22:36.381Z,1013.82
2019-05-06T11:24:29.295Z,1013.80
2019-05-06T11:25:29.307Z,1013.76
2019-05-06T11:27:31.070Z,1013.72
2019-05-06T11:28:22.233Z,1013.79
2019-05-06T11:30:15.147Z,1013.80
2019-05-06T11:31:15.162Z,1013.78
2019-05-06T11:33:08.087Z,1013.72
2019-05-06T11:34:08.092Z,1013.80
2019-05-06T11:36:01.008Z,1013.80
2019-05-06T11:37:01.015Z,1013.79
2019-05-06T11:38:53.932Z,1013.74
2019-05-06T11:39:53.945Z,1013.75
2019-05-06T11:42:05.280Z,1013.81
2019-05-06T11:42:46.870Z,1013.75
2019-05-06T11:44:39.781Z,1013.74
2019-05-06T11:45:39.801Z,1013.72
2019-05-06T11:47:32.785Z,1013.68
2019-05-06T11:48:32.930Z,1013.67
2019-05-06T11:50:25.633Z,1013.62
2019-05-06T11:51:25.665Z,1013.59
2019-05-06T11:53:18.564Z,1013.59
2019-05-06T11:54:20.666Z,1013.56
2019-05-06T11:56:12.783Z,1013.63
2019-05-06T11:57:12.401Z,1013.56
2019-05-06T11:59:04.413Z,1013.60
2019-05-06T12:00:04.448Z,1013.58
2019-05-06T12:01:57.359Z,1013.58
2019-05-06T12:02:57.364Z,1013.57
2019-05-06T12:04:52.574Z,1013.59
2019-05-06T12:05:52.540Z,1013.62
2019-05-06T12:07:48.082Z,1013.65
2019-05-06T12:08:43.364Z,1013.63
2019-05-06T12:10:36.133Z,1013.65
2019-05-06T12:11:36.152Z,1013.67
2019-05-06T12:13:29.067Z,1013.64
2019-05-06T12:14:29.073Z,1013.66
2019-05-06T12:16:26.138Z,1013.59
2019-05-06T12:17:22.439Z,1013.61
2019-05-06T12:19:14.912Z,1013.61
2019-05-06T12:20:14.928Z,1013.62
2019-05-06T12:22:07.843Z,1013.58
2019-05-06T12:23:07.856Z,1013.59
2019-05-06T12:25:04.423Z,1013.56
2019-05-06T12:26:02.493Z,1013.58
2019-05-06T12:27:53.707Z,1013.59
2019-05-06T12:28:53.699Z,1013.58
2019-05-06T12:30:46.618Z,1013.54
2019-05-06T12:31:46.640Z,1013.57
2019-05-06T12:33:39.549Z,1013.56
2019-05-06T12:34:39.557Z,1013.47
2019-05-06T12:36:32.831Z,1013.51
2019-05-06T12:37:32.481Z,1013.50
2019-05-06T12:39:25.418Z,1013.49
2019-05-06T12:40:25.407Z,1013.48
2019-05-06T12:42:18.329Z,1013.53
2019-05-06T12:43:18.336Z,1013.56
2019-05-06T12:45:13.096Z,1013.55
2019-05-06T12:46:13.249Z,1013.59
2019-05-06T12:48:04.191Z,1013.56
2019-05-06T12:49:04.191Z,1013.57
2019-05-06T12:50:57.104Z,1013.61
2019-05-06T12:51:57.121Z,1013.57
2019-05-06T12:53:50.044Z,1013.59
2019-05-06T12:54:50.075Z,1013.62
2019-05-06T12:56:42.980Z,1013.65
2019-05-06T12:57:43.349Z,1013.65
2019-05-06T12:59:35.893Z,1013.64
2019-05-06T13:00:35.907Z,1013.64
2019-05-06T13:02:28.997Z,1013.59
2019-05-06T13:03:31.644Z,1013.58
2019-05-06T13:05:21.756Z,1013.56
2019-05-06T13:06:26.380Z,1013.61
2019-05-06T13:08:19.947Z,1013.55
2019-05-06T13:09:14.750Z,1013.56
2019-05-06T13:11:07.716Z,1013.55
2019-05-06T13:12:07.708Z,1013.59
2019-05-06T13:14:03.458Z,1013.60
2019-05-06T13:15:03.287Z,1013.59
2019-05-06T13:16:53.577Z,1013.58
2019-05-06T13:17:53.568Z,1013.58
2019-05-06T13:19:46.480Z,1013.60
2019-05-06T13:20:50.132Z,1013.56
2019-05-06T13:22:39.412Z,1013.55
2019-05-06T13:23:39.421Z,1013.55
2019-05-06T13:25:32.792Z,1013.50
2019-05-06T13:26:32.639Z,1013.53
2019-05-06T13:28:25.263Z,1013.53
2019-05-06T13:29:25.274Z,1013.55
2019-05-06T13:31:21.581Z,1013.53
2019-05-06T13:32:18.195Z,1013.49
2019-05-06T13:34:11.196Z,1013.44
2019-05-06T13:35:12.265Z,1013.43
2019-05-06T13:37:04.121Z,1013.38
2019-05-06T13:38:04.048Z,1013.43
2019-05-06T13:39:57.040Z,1013.43
2019-05-06T13:40:57.735Z,1013.49
2019-05-06T13:42:49.894Z,1013.45
2019-05-06T13:43:49.900Z,1013.47
2019-05-06T13:45:42.816Z,1013.45
2019-05-06T13:46:42.830Z,1013.39
2019-05-06T13:48:35.749Z,1013.29
2019-05-06T13:49:35.760Z,1013.26
2019-05-06T13:51:28.674Z,1013.32
2019-05-06T13:52:28.691Z,1013.32
2019-05-06T13:54:22.331Z,1013.30
2019-05-06T13:55:22.152Z,1013.28
2019-05-06T13:57:14.533Z,1013.32
2019-05-06T13:58:14.546Z,1013.25
2019-05-06T14:00:07.465Z,1013.33
2019-05-06T14:01:07.483Z,1013.26
2019-05-06T14:03:02.147Z,1013.27
2019-05-06T14:04:00.401Z,1013.29
2019-05-06T14:05:53.315Z,1013.28
2019-05-06T14:06:53.326Z,1013.29
2019-05-06T14:08:46.246Z,1013.31
2019-05-06T14:09:46.253Z,1013.28
2019-05-06T14:11:39.177Z,1013.29
2019-05-06T14:12:39.182Z,1013.27
2019-05-06T14:14:32.342Z,1013.29
2019-05-06T14:15:32.564Z,1013.30
2019-05-06T14:17:25.025Z,1013.28
2019-05-06T14:18:25.040Z,1013.32
2019-05-06T14:20:17.958Z,1013.23
2019-05-06T14:21:17.973Z,1013.27
2019-05-06T14:23:12.584Z,1013.24
2019-05-06T14:24:13.045Z,1013.22
2019-05-06T14:26:04.281Z,1013.23
2019-05-06T14:27:03.829Z,1013.20
2019-05-06T14:28:56.747Z,1013.22
2019-05-06T14:29:56.757Z,1013.20
2019-05-06T14:31:52.313Z,1013.16
2019-05-06T14:32:49.685Z,1013.12
2019-05-06T14:34:43.603Z,1013.15
2019-05-06T14:35:43.513Z,1013.14
2019-05-06T14:37:36.427Z,1013.13
2019-05-06T14:38:36.440Z,1013.17
2019-05-06T14:40:29.363Z,1013.10
2019-05-06T14:41:29.371Z,1013.17
2019-05-06T14:43:22.809Z,1013.10
2019-05-06T14:44:23.271Z,1013.11
2019-05-06T14:46:15.258Z,1013.12
2019-05-06T14:47:15.232Z,1013.10
2019-05-06T14:49:08.152Z,1013.09
2019-05-06T14:50:08.170Z,1013.09
2019-05-06T14:52:02.750Z,1013.11
2019-05-06T14:53:02.710Z,1013.07
2019-05-06T14:54:54.016Z,1013.08
2019-05-06T14:55:54.024Z,1013.12
2019-05-06T14:57:46.944Z,1013.05
2019-05-06T14:58:46.953Z,1013.11
2019-05-06T15:00:39.871Z,1013.05
2019-05-06T15:01:39.894Z,1013.06
2019-05-06T15:03:32.802Z,1013.05
2019-05-06T15:04:32.807Z,1013.04
2019-05-06T15:06:25.721Z,1013.03
2019-05-06T15:07:25.735Z,1013.04
2019-05-06T15:09:18.661Z,1013.04
2019-05-06T15:10:23.013Z,1013.03
2019-05-06T15:12:13.029Z,1013.00
2019-05-06T15:13:12.641Z,1012.99
2019-05-06T15:15:04.508Z,1013.00
2019-05-06T15:16:04.515Z,1012.97
2019-05-06T15:17:57.437Z,1012.98
2019-05-06T15:18:57.458Z,1012.97
2019-05-06T15:20:50.367Z,1012.97
2019-05-06T15:21:52.900Z,1013.00
2019-05-06T15:23:43.293Z,1013.04
2019-05-06T15:24:43.298Z,1013.00
2019-05-06T15:26:36.212Z,1012.99
2019-05-06T15:27:36.226Z,1013.06
2019-05-06T15:29:29.638Z,1013.02
2019-05-06T15:30:29.646Z,1013.02
2019-05-06T15:32:22.655Z,1013.05
2019-05-06T15:33:22.591Z,1013.05
2019-05-06T15:35:15.487Z,1013.09
2019-05-06T15:36:15.497Z,1013.09
2019-05-06T15:38:08.402Z,1013.14
2019-05-06T15:39:08.415Z,1013.14
2019-05-06T15:41:01.331Z,1013.10
2019-05-06T15:42:01.336Z,1013.15
2019-05-06T15:43:54.251Z,1013.15
2019-05-06T15:44:54.257Z,1013.16
2019-05-06T15:46:47.179Z,1013.15
2019-05-06T15:47:47.182Z,1013.13
2019-05-06T15:49:41.910Z,1013.12
2019-05-06T15:50:44.867Z,1013.13
2019-05-06T15:52:33.021Z,1013.09
2019-05-06T15:53:33.318Z,1013.09
2019-05-06T15:55:25.951Z,1013.10
2019-05-06T15:56:25.956Z,1013.09
2019-05-06T15:58:18.867Z,1013.09
2019-05-06T15:59:18.878Z,1013.07
2019-05-06T16:01:14.294Z,1013.04
2019-05-06T16:02:12.099Z,1013.01
2019-05-06T16:04:04.709Z,1013.04
2019-05-06T16:05:11.269Z,1013.06
2019-05-06T16:06:57.634Z,1013.02
2019-05-06T16:07:57.643Z,1013.03
2019-05-06T16:09:54.981Z,1013.04
2019-05-06T16:10:55.210Z,1013.02
2019-05-06T16:12:44.005Z,1013.05
2019-05-06T16:13:45.113Z,1013.06
2019-05-06T16:15:36.400Z,1013.04
2019-05-06T16:16:36.405Z,1013.03
2019-05-06T16:18:29.317Z,1013.08
2019-05-06T16:19:29.338Z,1013.02
2019-05-06T16:21:23.495Z,1012.98
2019-05-06T16:22:23.476Z,1013.02
2019-05-06T16:24:16.382Z,1013.04
2019-05-06T16:25:16.394Z,1013.01
2019-05-06T16:27:09.308Z,1013.01
2019-05-06T16:28:09.314Z,1013.04
2019-05-06T16:30:03.480Z,1013.03
2019-05-06T16:31:02.504Z,1013.03
2019-05-06T16:32:55.143Z,1013.03
2019-05-06T16:33:55.154Z,1013.04
2019-05-06T16:35:48.068Z,1013.05
2019-05-06T16:36:48.130Z,1013.11
2019-05-06T16:38:42.847Z,1013.11
2019-05-06T16:39:40.998Z,1013.14
2019-05-06T16:41:33.926Z,1013.14
2019-05-06T16:42:33.931Z,1013.14
2019-05-06T16:44:26.824Z,1013.16
2019-05-06T16:45:26.835Z,1013.11
2019-05-06T16:47:19.750Z,1013.15
2019-05-06T16:48:19.757Z,1013.14
2019-05-06T16:50:13.397Z,1013.14
2019-05-06T16:51:12.737Z,1013.16
2019-05-06T16:53:05.579Z,1013.13
2019-05-06T16:54:05.591Z,1013.17
2019-05-06T16:55:58.535Z,1013.12
2019-05-06T16:56:58.511Z,1013.11
2019-05-06T16:58:52.548Z,1013.09
2019-05-06T16:59:52.255Z,1013.12
2019-05-06T17:01:44.372Z,1013.10
2019-05-06T17:02:55.924Z,1013.09
2019-05-06T17:04:37.535Z,1013.09
2019-05-06T17:05:37.365Z,1013.09
2019-05-06T17:07:30.259Z,1013.07
2019-05-06T17:08:30.346Z,1013.12
2019-05-06T17:10:23.256Z,1013.08
2019-05-06T17:11:30.573Z,1013.11
2019-05-06T17:13:16.048Z,1013.12
2019-05-06T17:14:16.061Z,1013.12
2019-05-06T17:16:08.970Z,1013.12
2019-05-06T17:17:08.974Z,1013.14
2019-05-06T17:19:03.377Z,1013.20
2019-05-06T17:20:03.119Z,1013.18
2019-05-06T17:21:54.808Z,1013.12
2019-05-06T17:22:54.888Z,1013.14
2019-05-06T17:24:48.710Z,1013.11
2019-05-06T17:25:47.730Z,1013.11